Time;durP1;ratioP1;P1;durP2;ratioP2;P2;SDS_P1;SDS_P2;PMS_P1;PMS_P2;Temp;Humidity;BMP_temperature;BMP_pressure;BME280_temperature;BME280_humidity;BME280_pressure;Samples;Min_cycle;Max_cycle;Signal;HPM_P1;HPM_P2
2023/02/19 00:01:14;;;;;;;61.07;27.57;;;10.40;99.90;;;;;;5018231;28;20025;-85
2023/02/19 00:03:40;;;;;;;;;;;10.30;99.90;;;;;;5035714;28;20026;-84
2023/02/19 00:06:08;;;;;;;63.07;26.33;;;10.30;99.90;;;;;;5035776;28;19909;-84
2023/02/19 00:08:37;;;;;;;61.67;28.93;;;10.30;99.90;;;;;;5038296;28;20048;-86
2023/02/19 00:11:07;;;;;;;61.30;31.07;;;10.30;99.90;;;;;;5037336;28;20068;-85
2023/02/19 00:13:43;;;;;;;71.37;30.53;;;10.20;99.90;;;;;;5035419;28;20029;-84
2023/02/19 00:16:14;;;;;;;73.37;31.60;;;10.20;99.90;;;;;;5036126;28;20051;-84
2023/02/19 00:18:41;;;;;;;74.60;33.10;;;10.20;99.90;;;;;;5034045;28;20413;-85
2023/02/19 00:21:06;;;;;;;69.77;32.33;;;10.20;99.90;;;;;;5034444;28;20025;-83
2023/02/19 00:23:33;;;;;;;70.50;34.43;;;10.20;99.90;;;;;;5016980;28;20080;-85
2023/02/19 00:26:17;;;;;;;73.27;33.27;;;10.10;99.90;;;;;;5034343;28;20030;-84
2023/02/19 00:28:43;;;;;;;73.40;33.10;;;10.10;99.90;;;;;;5033170;28;20017;-85
2023/02/19 00:31:23;;;;;;;68.83;33.60;;;10.10;99.90;;;;;;5033513;28;20033;-85
2023/02/19 00:33:52;;;;;;;69.57;32.73;;;10.10;99.90;;;;;;5036103;28;20024;-85
2023/02/19 00:36:18;;;;;;;57.97;31.73;;;10.10;99.90;;;;;;5044021;28;20033;-85
2023/02/19 00:38:44;;;;;;;66.50;32.77;;;10.10;99.90;;;;;;5041710;28;20030;-85
2023/02/19 00:41:18;;;;;;;73.20;32.60;;;10.10;99.90;;;;;;5040914;28;20063;-85
2023/02/19 00:43:56;;;;;;;71.95;33.03;;;10.00;99.90;;;;;;5039094;28;20029;-85
2023/02/19 00:46:23;;;;;;;67.57;31.50;;;10.10;99.90;;;;;;5038036;28;20021;-85
2023/02/19 00:48:49;;;;;;;70.37;34.37;;;10.10;99.90;;;;;;5037413;28;20104;-83
2023/02/19 00:51:15;;;;;;;68.37;32.20;;;10.00;99.90;;;;;;5039448;28;20437;-84
2023/02/19 00:53:41;;;;;;;73.13;32.63;;;10.00;99.90;;;;;;5026780;28;20120;-83
2023/02/19 00:56:07;;;;;;;63.93;31.80;;;10.00;99.90;;;;;;5028241;28;20033;-81
2023/02/19 00:58:33;;;;;;;75.87;33.73;;;10.00;99.90;;;;;;5018829;28;20022;-81
2023/02/19 01:00:59;;;;;;;80.60;33.93;;;10.00;99.90;;;;;;5035294;28;20036;-80
2023/02/19 01:03:25;;;;;;;66.47;32.23;;;9.90;99.90;;;;;;5018703;28;20030;-81
2023/02/19 01:05:52;;;;;;;71.13;32.07;;;10.00;99.90;;;;;;5035090;28;20050;-79
2023/02/19 01:08:18;;;;;;;72.63;33.53;;;9.90;99.90;;;;;;5018906;28;20025;-81
2023/02/19 01:10:43;;;;;;;79.73;34.80;;;9.90;99.90;;;;;;5036269;28;20077;-80
2023/02/19 01:13:09;;;;;;;68.23;32.43;;;9.90;99.90;;;;;;5035308;28;20056;-80
2023/02/19 01:15:35;;;;;;;70.57;32.97;;;9.90;99.90;;;;;;5018305;28;20022;-82
2023/02/19 01:18:01;;;;;;;70.87;34.03;;;9.90;99.90;;;;;;5035126;28;20382;-81
2023/02/19 01:20:27;;;;;;;71.00;32.03;;;9.90;99.90;;;;;;5034899;28;20038;-81
2023/02/19 01:22:53;;;;;;;65.63;31.43;;;9.90;99.90;;;;;;5018594;28;20030;-81
2023/02/19 01:25:19;;;;;;;70.97;32.23;;;9.80;99.90;;;;;;5034606;28;20028;-80
2023/02/19 01:27:44;;;;;;;62.33;32.23;;;9.90;99.90;;;;;;5018305;28;20032;-82
2023/02/19 01:30:11;;;;;;;68.07;33.40;;;9.90;99.90;;;;;;5018202;28;20025;-82
2023/02/19 01:32:36;;;;;;;65.97;32.50;;;9.90;99.90;;;;;;5018154;28;20018;-82
2023/02/19 01:35:02;;;;;;;68.83;32.70;;;9.90;99.90;;;;;;5034688;28;20022;-80
2023/02/19 01:37:28;;;;;;;69.57;32.97;;;9.80;99.90;;;;;;5018103;28;20163;-81
2023/02/19 01:39:57;;;;;;;75.10;32.27;;;9.80;99.90;;;;;;5034525;28;20052;-81
2023/02/19 01:42:22;;;;;;;78.77;35.23;;;9.80;99.90;;;;;;5018067;28;20033;-81
2023/02/19 01:44:48;;;;;;;70.73;33.93;;;9.90;99.90;;;;;;5017844;28;20393;-82
2023/02/19 01:47:16;;;;;;;73.03;34.20;;;9.80;99.90;;;;;;5034486;28;20021;-82
2023/02/19 01:49:55;;;;;;;67.00;30.40;;;9.90;99.90;;;;;;5034424;28;20040;-81
2023/02/19 01:52:34;;;;;;;56.17;26.73;;;9.80;99.90;;;;;;5034248;28;20080;-81
2023/02/19 01:55:02;;;;;;;60.50;24.60;;;9.80;99.90;;;;;;5033987;28;20029;-81
2023/02/19 01:57:36;;;;;;;63.83;21.97;;;9.90;99.90;;;;;;5034138;28;20053;-81
2023/02/19 02:00:06;;;;;;;59.17;20.77;;;9.80;99.90;;;;;;5034045;28;20013;-81
2023/02/19 02:02:32;;;;;;;53.00;19.80;;;9.80;99.90;;;;;;5034187;28;20462;-81
2023/02/19 02:04:59;;;;;;;53.00;16.93;;;9.80;99.90;;;;;;5017697;28;20057;-79
2023/02/19 02:10:18;;;;;;;51.50;18.77;;;9.80;99.90;;;;;;5035199;28;20048;-80
2023/02/19 02:12:44;;;;;;;40.27;15.37;;;9.80;99.90;;;;;;5018924;28;20021;-81
2023/02/19 02:15:11;;;;;;;48.87;16.00;;;9.70;99.90;;;;;;5033820;28;20393;-86
2023/02/19 02:18:15;;;;;;;46.50;15.30;;;9.70;99.90;;;;;;5035277;28;20033;-86
2023/02/19 02:20:53;;;;;;;47.55;15.85;;;9.70;99.90;;;;;;5035576;28;20115;-84
2023/02/19 02:23:31;;;;;;;50.73;16.27;;;9.70;99.90;;;;;;5035427;28;20038;-85
2023/02/19 02:26:15;;;;;;;55.57;18.10;;;9.70;99.90;;;;;;5034955;28;20485;-84
2023/02/19 02:29:11;;;;;;;54.38;16.60;;;9.70;99.90;;;;;;5035024;28;20063;-85
2023/02/19 02:31:48;;;;;;;46.27;17.00;;;9.80;99.90;;;;;;5035484;28;20470;-86
2023/02/19 02:34:24;;;;;;;39.33;16.63;;;9.70;99.90;;;;;;5035584;28;20022;-84
2023/02/19 02:36:54;;;;;;;53.40;17.43;;;9.70;99.90;;;;;;5035963;28;20025;-84
2023/02/19 02:39:24;;;;;;;39.83;15.50;;;9.70;99.90;;;;;;5035508;28;20458;-85
2023/02/19 02:44:41;;;;;;;47.53;16.80;;;9.70;99.90;;;;;;5036886;28;20036;-84
2023/02/19 02:47:39;;;;;;;47.17;17.73;;;9.70;99.90;;;;;;5019340;28;20049;-84
2023/02/19 02:50:05;;;;;;;38.73;17.37;;;9.70;99.90;;;;;;5036737;28;20021;-84
2023/02/19 02:55:23;;;;;;;45.43;18.17;;;9.70;99.90;;;;;;5037295;28;20385;-84
2023/02/19 02:57:49;;;;;;;43.50;17.10;;;9.70;99.90;;;;;;5035455;28;20022;-85
2023/02/19 03:00:15;;;;;;;40.37;17.23;;;9.70;99.90;;;;;;5040112;28;20021;-85
2023/02/19 03:02:42;;;;;;;39.53;14.20;;;9.70;99.90;;;;;;5027050;28;20565;-85
2023/02/19 03:08:19;;;;;;;38.63;15.80;;;9.70;99.90;;;;;;5037082;28;20028;-85
2023/02/19 03:10:47;;;;;;;38.27;16.70;;;9.70;99.90;;;;;;5035535;28;20064;-85
2023/02/19 03:19:18;;;;;;;37.73;14.70;;;9.70;99.90;;;;;;5036464;28;20083;-86
2023/02/19 03:21:59;;;;;;;33.07;13.40;;;9.70;99.90;;;;;;5034976;28;20124;-85
2023/02/19 03:27:19;;;;;;;35.73;13.37;;;9.70;99.90;;;;;;5034215;28;20167;-81
2023/02/19 03:29:47;;;;;;;33.07;12.80;;;9.70;99.90;;;;;;5032458;28;20040;-81
2023/02/19 03:32:17;;;;;;;43.70;13.83;;;9.80;99.90;;;;;;5032309;28;20017;-81
2023/02/19 03:35:11;;;;;;;35.93;13.43;;;9.70;99.90;;;;;;5032337;28;20044;-81
2023/02/19 03:37:51;;;;;;;32.85;13.48;;;9.80;99.90;;;;;;5031872;28;20026;-80
2023/02/19 03:40:17;;;;;;;33.37;12.63;;;9.80;99.90;;;;;;5033454;28;20030;-81
2023/02/19 03:42:49;;;;;;;31.17;11.27;;;9.80;99.90;;;;;;5033533;28;20036;-80
2023/02/19 03:46:00;;;;;;;27.00;11.63;;;9.80;99.90;;;;;;5033499;28;20115;-81
2023/02/19 03:48:47;;;;;;;26.70;11.80;;;9.80;99.90;;;;;;5034570;28;20021;-81
2023/02/19 03:51:39;;;;;;;29.17;10.73;;;9.80;99.90;;;;;;5051261;28;20534;-81
2023/02/19 03:54:18;;;;;;;28.73;10.87;;;9.80;99.90;;;;;;5031870;28;20030;-81
2023/02/19 03:56:43;;;;;;;25.47;11.57;;;9.80;99.90;;;;;;5032138;28;20128;-80
2023/02/19 03:59:43;;;;;;;27.20;11.17;;;9.80;99.90;;;;;;5032006;28;20057;-80
2023/02/19 04:02:13;;;;;;;24.40;9.37;;;9.80;99.90;;;;;;5031445;28;20132;-80
2023/02/19 04:04:53;;;;;;;19.27;9.10;;;9.80;99.90;;;;;;5032273;28;20053;-80
2023/02/19 04:07:20;;;;;;;26.10;9.80;;;9.80;99.90;;;;;;5032064;28;20025;-80
2023/02/19 04:09:48;;;;;;;24.83;9.70;;;9.80;99.90;;;;;;5032165;28;20024;-79
2023/02/19 04:12:17;;;;;;;22.17;9.60;;;9.80;99.90;;;;;;5031939;28;20052;-80
2023/02/19 04:15:05;;;;;;;20.17;8.77;;;9.80;99.90;;;;;;5032115;28;20013;-81
2023/02/19 04:17:37;;;;;;;22.17;9.17;;;9.80;99.90;;;;;;5033148;28;20108;-80
2023/02/19 04:20:06;;;;;;;30.03;10.07;;;9.80;99.90;;;;;;5036588;28;20021;-80
2023/02/19 04:22:34;;;;;;;34.17;10.10;;;9.80;99.90;;;;;;5036230;28;20091;-80
2023/02/19 04:24:59;;;;;;;23.43;8.63;;;9.80;99.90;;;;;;5036200;28;20104;-81
2023/02/19 04:27:25;;;;;;;18.53;8.77;;;9.80;99.90;;;;;;5036038;28;20060;-80
2023/02/19 04:29:51;;;;;;;23.37;9.50;;;9.80;99.90;;;;;;5035906;28;20355;-80
2023/02/19 04:32:16;;;;;;;21.53;9.83;;;9.80;99.90;;;;;;5019439;28;20017;-79
2023/02/19 04:34:42;;;;;;;20.67;9.27;;;9.70;99.90;;;;;;5036272;28;20025;-79
2023/02/19 04:37:08;;;;;;;26.80;9.17;;;9.80;99.90;;;;;;5019408;28;20053;-80
2023/02/19 04:39:34;;;;;;;19.97;8.47;;;9.80;99.90;;;;;;5036126;28;20115;-79
2023/02/19 04:41:59;;;;;;;27.33;9.47;;;9.70;99.90;;;;;;5036283;28;20414;-80
2023/02/19 04:44:25;;;;;;;18.33;8.37;;;9.70;99.90;;;;;;5036283;28;20031;-81
2023/02/19 04:46:51;;;;;;;21.93;9.67;;;9.70;99.90;;;;;;5021478;28;20053;-85
2023/02/19 04:49:16;;;;;;;27.10;9.13;;;9.70;99.90;;;;;;5022441;28;20025;-86
2023/02/19 04:51:42;;;;;;;22.23;9.57;;;9.70;99.90;;;;;;5022045;28;20535;-86
2023/02/19 04:54:08;;;;;;;25.97;9.90;;;9.70;99.90;;;;;;5021218;28;20044;-84
2023/02/19 04:56:33;;;;;;;27.93;9.97;;;9.70;99.90;;;;;;5020871;28;20033;-85
2023/02/19 04:58:59;;;;;;;19.00;8.83;;;9.70;99.90;;;;;;5037401;28;20022;-83
2023/02/19 05:01:25;;;;;;;22.33;9.27;;;9.70;99.90;;;;;;5020448;28;20071;-84
2023/02/19 05:03:51;;;;;;;20.57;9.00;;;9.70;99.90;;;;;;5036838;28;20085;-85
2023/02/19 05:06:17;;;;;;;24.70;9.40;;;9.70;99.90;;;;;;5019783;28;20026;-85
2023/02/19 05:08:43;;;;;;;20.13;9.10;;;9.70;99.90;;;;;;5037057;28;20386;-84
2023/02/19 05:11:10;;;;;;;21.67;8.70;;;9.70;99.90;;;;;;5036675;28;20056;-87
2023/02/19 05:13:37;;;;;;;22.60;8.93;;;9.70;99.90;;;;;;5037631;28;20026;-85
2023/02/19 05:16:06;;;;;;;22.47;9.00;;;9.70;99.90;;;;;;5037257;28;20385;-84
2023/02/19 05:18:33;;;;;;;22.43;8.80;;;9.70;99.90;;;;;;5038341;28;20048;-85
2023/02/19 05:20:59;;;;;;;23.03;8.30;;;9.70;99.90;;;;;;5035346;28;20037;-85
2023/02/19 05:23:26;;;;;;;20.53;8.43;;;9.70;99.90;;;;;;5038990;28;20025;-84
2023/02/19 05:25:52;;;;;;;22.00;8.73;;;9.70;99.90;;;;;;5024228;28;20032;-85
2023/02/19 05:28:18;;;;;;;21.13;7.90;;;9.70;99.90;;;;;;5039326;28;20026;-86
2023/02/19 05:30:51;;;;;;;22.17;9.20;;;9.80;99.90;;;;;;5034938;28;20087;-80
2023/02/19 05:33:19;;;;;;;23.17;8.53;;;9.80;99.90;;;;;;5034747;28;20017;-80
2023/02/19 05:35:47;;;;;;;21.80;8.27;;;9.70;99.90;;;;;;5018371;28;20026;-80
2023/02/19 05:38:13;;;;;;;22.07;8.43;;;9.70;99.90;;;;;;5034409;28;20056;-81
2023/02/19 05:40:40;;;;;;;17.63;8.03;;;9.70;99.90;;;;;;5018361;28;20068;-81
2023/02/19 05:43:06;;;;;;;26.73;8.80;;;9.80;99.90;;;;;;5034580;28;20469;-81
2023/02/19 05:45:33;;;;;;;19.87;7.47;;;9.80;99.90;;;;;;5034388;28;20045;-81
2023/02/19 05:47:59;;;;;;;20.70;7.53;;;9.80;99.90;;;;;;5035769;28;20033;-80
2023/02/19 05:50:25;;;;;;;15.67;7.13;;;9.80;99.90;;;;;;5034429;28;20033;-80
2023/02/19 05:52:51;;;;;;;24.03;8.30;;;9.80;99.90;;;;;;5035651;28;20076;-80
2023/02/19 05:55:16;;;;;;;17.73;8.43;;;9.80;99.90;;;;;;5034238;28;20025;-80
2023/02/19 05:57:44;;;;;;;26.37;8.20;;;9.80;99.90;;;;;;5018001;28;20087;-81
2023/02/19 06:00:12;;;;;;;18.63;7.60;;;9.80;99.90;;;;;;5034537;28;20108;-79
2023/02/19 06:02:38;;;;;;;26.37;8.90;;;9.80;99.90;;;;;;5033989;28;20520;-81
2023/02/19 06:05:04;;;;;;;23.07;8.23;;;9.80;99.90;;;;;;5034054;28;20025;-81
2023/02/19 06:07:31;;;;;;;25.47;9.30;;;9.80;99.90;;;;;;5034008;28;20022;-81
2023/02/19 06:09:57;;;;;;;21.83;8.23;;;9.80;99.90;;;;;;5034107;28;20045;-79
2023/02/19 06:12:23;;;;;;;22.73;8.03;;;9.80;99.90;;;;;;5034026;28;20022;-80
2023/02/19 06:14:48;;;;;;;28.80;9.13;;;9.80;99.90;;;;;;5033922;28;20021;-80
2023/02/19 06:17:14;;;;;;;18.63;7.47;;;9.80;99.90;;;;;;5017712;28;20033;-81
2023/02/19 06:19:41;;;;;;;22.47;8.13;;;9.80;99.90;;;;;;5034291;28;20355;-80
2023/02/19 06:22:07;;;;;;;21.60;7.77;;;9.80;99.90;;;;;;5035361;28;20048;-80
2023/02/19 06:24:34;;;;;;;23.47;8.27;;;9.80;99.90;;;;;;5017523;28;20501;-79
2023/02/19 06:27:00;;;;;;;21.47;7.53;;;9.80;99.90;;;;;;5033643;28;20026;-79
2023/02/19 06:29:26;;;;;;;19.33;7.57;;;9.80;99.90;;;;;;5033909;28;20026;-80
2023/02/19 06:31:51;;;;;;;19.87;7.83;;;9.80;99.90;;;;;;5033579;28;20017;-81
2023/02/19 06:34:17;;;;;;;19.63;7.20;;;9.80;99.90;;;;;;5033571;28;20108;-81
2023/02/19 06:36:48;;;;;;;23.60;7.97;;;9.80;99.90;;;;;;5017000;28;20029;-81
2023/02/19 06:39:14;;;;;;;21.03;7.10;;;9.80;99.90;;;;;;5033593;28;20049;-81
2023/02/19 06:41:40;;;;;;;19.40;7.93;;;9.80;99.90;;;;;;4999714;28;20060;-81
2023/02/19 06:44:05;;;;;;;18.27;7.37;;;9.80;99.90;;;;;;5033290;28;20021;-80
2023/02/19 06:46:31;;;;;;;22.57;7.27;;;9.80;99.90;;;;;;5016945;28;20087;-80
2023/02/19 06:48:57;;;;;;;16.37;6.83;;;9.80;99.90;;;;;;5033142;28;20013;-81
2023/02/19 06:51:25;;;;;;;24.73;7.53;;;9.80;99.90;;;;;;5016509;28;20024;-81
2023/02/19 06:53:54;;;;;;;19.57;7.10;;;9.80;99.90;;;;;;5033100;28;20017;-81
2023/02/19 06:56:27;;;;;;;20.47;6.77;;;9.80;99.90;;;;;;5031932;28;20497;-81
2023/02/19 06:58:55;;;;;;;19.07;6.60;;;9.80;99.90;;;;;;5032842;28;20018;-81
2023/02/19 07:01:21;;;;;;;19.63;7.27;;;9.80;99.90;;;;;;5025264;28;20029;-81
2023/02/19 07:03:47;;;;;;;17.60;6.37;;;9.80;99.90;;;;;;5032532;28;20029;-81
2023/02/19 07:06:15;;;;;;;21.60;7.60;;;9.80;99.90;;;;;;5024125;28;20095;-81
2023/02/19 07:08:41;;;;;;;16.20;7.67;;;9.80;99.90;;;;;;5011590;28;20109;-81
2023/02/19 07:11:07;;;;;;;19.80;8.57;;;9.80;99.90;;;;;;5011991;28;20185;-80
2023/02/19 07:13:33;;;;;;;21.43;7.50;;;9.80;99.90;;;;;;4998881;28;20088;-85
2023/02/19 07:16:00;;;;;;;14.87;7.07;;;9.80;99.90;;;;;;4999645;28;20148;-86
2023/02/19 07:18:26;;;;;;;17.57;7.00;;;9.80;99.90;;;;;;5018972;28;20509;-85
2023/02/19 07:20:52;;;;;;;20.20;7.47;;;9.70;99.90;;;;;;5020712;28;20021;-85
2023/02/19 07:23:18;;;;;;;15.67;6.97;;;9.70;99.90;;;;;;5013384;28;20063;-87
2023/02/19 07:25:43;;;;;;;25.43;6.93;;;9.70;99.90;;;;;;5038451;28;20082;-86
2023/02/19 07:28:10;;;;;;;13.90;7.20;;;9.80;99.90;;;;;;5036451;28;20553;-86
2023/02/19 07:30:35;;;;;;;15.53;6.60;;;9.70;99.90;;;;;;5019782;28;20129;-87
2023/02/19 07:33:01;;;;;;;15.60;7.17;;;9.70;99.90;;;;;;5034062;28;20105;-86
2023/02/19 07:35:27;;;;;;;19.63;7.17;;;9.70;99.90;;;;;;5032874;28;20056;-83
2023/02/19 07:37:55;;;;;;;15.17;7.57;;;9.70;99.90;;;;;;5032635;28;20091;-83
2023/02/19 07:40:21;;;;;;;18.87;6.80;;;9.70;99.90;;;;;;5016588;28;20424;-82
2023/02/19 07:42:47;;;;;;;19.93;7.23;;;9.70;99.90;;;;;;5016170;28;20030;-83
2023/02/19 07:45:12;;;;;;;20.30;7.27;;;9.70;99.90;;;;;;5016007;28;20033;-83
2023/02/19 07:47:38;;;;;;;17.53;8.73;;;9.70;99.90;;;;;;5032381;28;20032;-83
2023/02/19 07:50:04;;;;;;;19.67;8.50;;;9.70;99.90;;;;;;5033568;28;20016;-83
2023/02/19 07:52:32;;;;;;;18.67;7.67;;;9.70;99.90;;;;;;5032019;28;20013;-83
2023/02/19 07:54:58;;;;;;;15.67;8.03;;;9.70;99.90;;;;;;5033642;28;20030;-83
2023/02/19 07:57:26;;;;;;;15.07;7.53;;;9.70;99.90;;;;;;5016043;28;20026;-83
2023/02/19 07:59:52;;;;;;;16.23;8.67;;;9.70;99.90;;;;;;5032526;28;20029;-83
2023/02/19 08:05:05;;;;;;;18.87;8.50;;;9.70;99.90;;;;;;5033803;28;20047;-81
2023/02/19 08:07:34;;;;;;;18.97;9.03;;;9.70;99.90;;;;;;5032134;28;20028;-81
2023/02/19 08:15:40;;;;;;;20.27;8.60;;;9.80;99.90;;;;;;5033520;28;20106;-81
2023/02/19 08:18:06;;;;;;;15.97;6.97;;;9.80;99.90;;;;;;5033261;28;20025;-81
2023/02/19 08:20:32;;;;;;;21.93;9.23;;;9.80;99.90;;;;;;5031799;28;20025;-81
2023/02/19 08:22:58;;;;;;;16.67;8.03;;;9.90;99.90;;;;;;5015443;28;20523;-81
2023/02/19 08:25:24;;;;;;;22.13;8.70;;;9.90;99.90;;;;;;5015585;28;20037;-81
2023/02/19 08:27:50;;;;;;;22.43;9.23;;;9.90;99.90;;;;;;5015738;28;20030;-80
2023/02/19 08:30:18;;;;;;;16.00;7.87;;;9.90;99.90;;;;;;5014657;28;20371;-80
2023/02/19 08:32:44;;;;;;;17.67;7.90;;;9.90;99.90;;;;;;4996194;28;20041;-80
2023/02/19 08:35:09;;;;;;;19.83;7.27;;;9.90;99.90;;;;;;5017109;28;20494;-80
2023/02/19 08:37:35;;;;;;;15.27;7.37;;;10.00;99.90;;;;;;5017170;28;20117;-81
2023/02/19 08:40:01;;;;;;;21.43;7.40;;;10.00;99.90;;;;;;4995746;28;20022;-82
2023/02/19 08:42:30;;;;;;;21.37;7.30;;;10.10;99.90;;;;;;5012040;28;20034;-81
2023/02/19 08:44:58;;;;;;;20.17;8.00;;;10.10;99.90;;;;;;5023572;28;20070;-82
2023/02/19 08:47:26;;;;;;;20.70;7.30;;;10.10;99.90;;;;;;5015838;28;20029;-80
2023/02/19 08:49:52;;;;;;;18.67;7.37;;;10.10;99.90;;;;;;5031909;28;20030;-81
2023/02/19 08:52:18;;;;;;;16.57;7.40;;;10.10;99.90;;;;;;5032096;28;20362;-81
2023/02/19 08:54:44;;;;;;;23.17;7.50;;;10.10;99.90;;;;;;5012263;28;20055;-82
2023/02/19 08:57:09;;;;;;;18.60;7.90;;;10.00;99.90;;;;;;5012271;28;20020;-82
2023/02/19 08:59:35;;;;;;;20.47;7.77;;;10.10;99.90;;;;;;5013654;28;20014;-81
2023/02/19 09:02:01;;;;;;;24.93;8.03;;;10.10;99.90;;;;;;4995965;28;20026;-80
2023/02/19 09:04:26;;;;;;;17.30;7.83;;;10.20;99.90;;;;;;5012631;28;20022;-81
2023/02/19 09:06:52;;;;;;;18.60;8.33;;;10.20;99.90;;;;;;4999415;28;20025;-81
2023/02/19 09:09:18;;;;;;;17.63;7.47;;;10.20;99.90;;;;;;5004966;28;20054;-81
2023/02/19 09:11:44;;;;;;;20.03;8.93;;;10.20;99.90;;;;;;5010849;28;20052;-81
2023/02/19 09:14:09;;;;;;;20.07;8.70;;;10.30;99.90;;;;;;5025702;28;20021;-81
2023/02/19 09:16:36;;;;;;;21.77;9.03;;;10.30;99.90;;;;;;5033227;28;20022;-81
2023/02/19 09:19:04;;;;;;;18.30;9.00;;;10.30;99.90;;;;;;5035004;28;20033;-81
2023/02/19 09:21:30;;;;;;;17.00;8.40;;;10.30;99.90;;;;;;5031181;28;20029;-81
2023/02/19 09:23:55;;;;;;;22.80;9.07;;;10.30;99.90;;;;;;5032726;28;20025;-81
2023/02/19 09:26:22;;;;;;;18.57;8.60;;;10.30;99.90;;;;;;5034762;28;20358;-81
2023/02/19 09:28:48;;;;;;;18.17;8.70;;;10.30;99.90;;;;;;5036303;28;20535;-81
2023/02/19 09:31:14;;;;;;;14.77;8.10;;;10.30;99.90;;;;;;5034886;28;20104;-81
2023/02/19 09:33:47;;;;;;;18.73;8.53;;;10.30;99.90;;;;;;5034779;28;20022;-81
2023/02/19 09:36:14;;;;;;;19.83;9.30;;;10.40;99.90;;;;;;5034641;28;20028;-81
2023/02/19 09:38:41;;;;;;;18.13;8.60;;;10.40;99.90;;;;;;5034546;28;20024;-82
2023/02/19 09:41:18;;;;;;;17.93;8.83;;;10.40;99.90;;;;;;5018899;28;20045;-81
2023/02/19 09:43:45;;;;;;;18.60;8.87;;;10.40;99.90;;;;;;5034978;28;20029;-81
2023/02/19 09:46:25;;;;;;;14.70;8.70;;;10.40;99.90;;;;;;5034562;28;20021;-81
2023/02/19 09:49:01;;;;;;;15.13;8.60;;;10.50;99.90;;;;;;5034569;28;20055;-82
2023/02/19 09:51:31;;;;;;;16.53;8.63;;;10.50;99.90;;;;;;5034482;28;20097;-82
2023/02/19 09:53:57;;;;;;;21.77;9.20;;;10.60;99.90;;;;;;5034452;28;20084;-82
2023/02/19 09:56:26;;;;;;;18.80;9.33;;;10.60;99.90;;;;;;5034288;28;20397;-82
2023/02/19 09:58:55;;;;;;;17.58;10.13;;;10.60;99.90;;;;;;5034780;28;20033;-81
2023/02/19 10:01:25;;;;;;;17.50;10.57;;;10.70;99.90;;;;;;5034255;28;20053;-81
2023/02/19 10:03:51;;;;;;;18.45;10.23;;;10.80;99.90;;;;;;5035685;28;20048;-81
2023/02/19 10:06:22;;;;;;;17.33;9.95;;;10.80;99.90;;;;;;5034485;28;20355;-82
2023/02/19 10:08:50;;;;;;;16.13;9.75;;;11.00;99.90;;;;;;5034127;28;20525;-82
2023/02/19 10:11:16;;;;;;;18.77;10.30;;;11.00;99.90;;;;;;5034419;28;20100;-82
2023/02/19 10:14:00;;;;;;;18.02;9.63;;;11.10;99.90;;;;;;5034041;28;20104;-81
2023/02/19 10:16:27;;;;;;;22.02;10.05;;;11.00;99.90;;;;;;5035175;28;20401;-81
2023/02/19 10:19:03;;;;;;;19.98;8.35;;;11.00;99.90;;;;;;5034191;28;20025;-84
2023/02/19 10:21:29;;;;;;;24.73;7.23;;;10.90;99.90;;;;;;5035653;28;20026;-83
2023/02/19 10:24:00;;;;;;;18.45;7.82;;;10.90;99.90;;;;;;5035253;28;20087;-82
2023/02/19 10:26:26;;;;;;;16.40;7.68;;;10.90;99.90;;;;;;5036789;28;20053;-84
2023/02/19 10:28:54;;;;;;;16.43;5.80;;;10.90;99.90;;;;;;5040764;28;20026;-83
2023/02/19 10:31:22;;;;;;;13.60;5.23;;;10.80;99.90;;;;;;5036552;28;20470;-84
2023/02/19 10:33:57;;;;;;;12.50;4.67;;;10.70;99.90;;;;;;5035366;28;20018;-83
2023/02/19 10:36:52;;;;;;;10.37;4.33;;;10.60;99.90;;;;;;5035028;28;20051;-83
2023/02/19 10:39:46;;;;;;;14.47;4.83;;;10.60;99.90;;;;;;5035490;28;20032;-84
2023/02/19 10:49:00;;;;;;;14.03;4.53;;;10.40;99.90;;;;;;5015647;28;20036;-84
2023/02/19 10:51:36;;;;;;;8.07;3.77;;;10.40;99.90;;;;;;5014976;28;20026;-81
2023/02/19 10:54:15;;;;;;;6.50;3.40;;;10.40;99.90;;;;;;5033222;28;20017;-82
2023/02/19 10:56:41;;;;;;;9.77;3.17;;;10.50;99.90;;;;;;5013506;28;20034;-81
2023/02/19 10:59:33;;;;;;;7.80;3.47;;;10.60;99.90;;;;;;5013177;28;20076;-82
2023/02/19 11:02:01;;;;;;;8.80;3.73;;;10.70;99.90;;;;;;5013154;28;20117;-81
2023/02/19 11:04:34;;;;;;;9.77;3.20;;;10.80;99.90;;;;;;5013852;28;20100;-83
2023/02/19 11:07:14;;;;;;;12.15;3.13;;;10.90;99.90;;;;;;5013563;28;20478;-82
2023/02/19 11:09:46;;;;;;;12.23;3.88;;;10.90;99.90;;;;;;5013235;28;20470;-81
2023/02/19 11:12:27;;;;;;;13.02;3.30;;;10.90;99.90;;;;;;5013824;28;20406;-81
2023/02/19 11:18:41;;;;;;;6.03;1.53;;;10.90;99.90;;;;;;5015052;28;20064;-82
2023/02/19 11:21:27;;;;;;;4.60;1.40;;;11.00;99.90;;;;;;5026970;28;20018;-82
2023/02/19 11:23:55;;;;;;;4.03;1.20;;;11.00;99.90;;;;;;5014654;28;20097;-83
2023/02/19 11:26:26;;;;;;;4.82;1.80;;;11.00;99.90;;;;;;5013265;28;20018;-82
2023/02/19 11:29:01;;;;;;;5.95;1.40;;;11.10;99.90;;;;;;5028265;28;20049;-83
2023/02/19 11:31:31;;;;;;;7.30;1.70;;;11.20;99.90;;;;;;5032826;28;20547;-83
2023/02/19 11:33:58;;;;;;;4.57;1.38;;;11.30;99.90;;;;;;5018850;28;20056;-83
2023/02/19 11:36:37;;;;;;;4.78;1.45;;;11.40;99.90;;;;;;5013195;28;20026;-83
2023/02/19 11:39:15;;;;;;;5.20;1.83;;;11.40;99.90;;;;;;5012694;28;20552;-83
2023/02/19 11:41:44;;;;;;;3.85;1.20;;;11.30;99.90;;;;;;5013276;28;20056;-83
2023/02/19 11:44:55;;;;;;;3.90;1.40;;;11.30;99.90;;;;;;5013483;28;20057;-85
2023/02/19 11:47:59;;;;;;;4.38;1.13;;;11.20;99.90;;;;;;5012041;28;20095;-85
2023/02/19 11:50:50;;;;;;;7.13;1.75;;;11.10;99.90;;;;;;5029695;28;20083;-85
2023/02/19 11:53:36;;;;;;;6.65;1.88;;;11.00;99.90;;;;;;5029329;28;20022;-85
2023/02/19 11:56:32;;;;;;;5.97;1.80;;;10.90;99.90;;;;;;5013226;28;20026;-84
2023/02/19 11:59:00;;;;;;;6.87;1.87;;;10.90;99.90;;;;;;5013121;28;20091;-84
2023/02/19 12:01:35;;;;;;;6.32;1.77;;;10.80;99.90;;;;;;5013215;28;20029;-83
2023/02/19 12:04:04;;;;;;;3.40;1.53;;;10.70;99.90;;;;;;5013947;28;20068;-83
2023/02/19 12:07:14;;;;;;;7.03;1.70;;;10.70;99.90;;;;;;5012831;28;20025;-83
2023/02/19 12:09:42;;;;;;;3.97;1.33;;;10.60;99.90;;;;;;5026639;28;20072;-83
2023/02/19 12:12:43;;;;;;;7.00;1.77;;;10.60;99.90;;;;;;5032459;28;20103;-83
2023/02/19 12:15:31;;;;;;;9.10;1.93;;;10.60;99.90;;;;;;5023516;28;20037;-79
2023/02/19 12:18:15;;;;;;;6.67;1.93;;;10.50;99.90;;;;;;5032699;28;20029;-80
2023/02/19 12:21:03;;;;;;;5.80;1.80;;;10.50;99.90;;;;;;5039406;28;20048;-81
2023/02/19 12:23:47;;;;;;;4.70;2.10;;;10.50;99.90;;;;;;5036077;28;20432;-81
2023/02/19 12:26:40;;;;;;;5.53;1.73;;;10.40;99.90;;;;;;5034091;28;20029;-80
2023/02/19 12:29:40;;;;;;;9.03;2.83;;;10.40;99.90;;;;;;5032786;28;20021;-80
2023/02/19 12:32:35;;;;;;;4.13;1.73;;;10.40;99.90;;;;;;5031554;28;20029;-80
2023/02/19 12:35:16;;;;;;;5.97;2.50;;;10.40;99.90;;;;;;5026293;28;20029;-80
2023/02/19 12:38:06;;;;;;;4.40;2.00;;;10.30;99.90;;;;;;5028505;28;20124;-81
2023/02/19 12:41:04;;;;;;;4.57;2.10;;;10.40;99.90;;;;;;5034706;28;20032;-78
2023/02/19 12:43:32;;;;;;;4.63;1.93;;;10.40;99.90;;;;;;5035750;28;20021;-81
2023/02/19 12:46:00;;;;;;;5.87;2.53;;;10.40;99.90;;;;;;5019450;28;20467;-80
2023/02/19 12:48:41;;;;;;;4.43;2.13;;;10.50;99.90;;;;;;5036090;28;20033;-79
2023/02/19 12:51:21;;;;;;;5.20;2.63;;;10.50;99.90;;;;;;5037187;28;20048;-80
2023/02/19 12:53:59;;;;;;;5.30;2.17;;;10.60;99.90;;;;;;5036699;28;20104;-80
2023/02/19 12:56:35;;;;;;;6.27;2.60;;;10.60;99.90;;;;;;5034205;28;20041;-80
2023/02/19 12:59:14;;;;;;;4.32;2.28;;;10.60;99.90;;;;;;5035579;28;20438;-81
2023/02/19 13:01:49;;;;;;;4.83;2.43;;;10.60;99.90;;;;;;5035469;28;20056;-79
2023/02/19 13:04:44;;;;;;;7.67;2.63;;;10.60;99.90;;;;;;5035251;28;20022;-80
2023/02/19 13:07:22;;;;;;;4.60;2.53;;;10.60;99.90;;;;;;5036463;28;20100;-81
2023/02/19 13:09:54;;;;;;;4.53;2.43;;;10.50;99.90;;;;;;5035286;28;20018;-81
2023/02/19 13:12:27;;;;;;;5.73;2.90;;;10.50;99.90;;;;;;5035046;28;20120;-81
2023/02/19 13:15:12;;;;;;;4.95;2.45;;;10.50;99.90;;;;;;5035037;28;20477;-81
2023/02/19 13:17:43;;;;;;;4.90;2.50;;;10.40;99.90;;;;;;5036597;28;20103;-81
2023/02/19 13:20:33;;;;;;;4.53;2.30;;;10.40;99.90;;;;;;5036245;28;20041;-80
2023/02/19 13:26:32;;;;;;;6.10;3.30;;;10.40;99.90;;;;;;5036187;28;20044;-81
2023/02/19 13:29:04;;;;;;;6.73;3.20;;;10.40;99.90;;;;;;5034614;28;20040;-81
2023/02/19 13:31:51;;;;;;;5.13;2.40;;;10.40;99.90;;;;;;5034769;28;20080;-80
2023/02/19 13:34:54;;;;;;;4.80;2.60;;;10.50;99.90;;;;;;5034769;28;20032;-81
2023/02/19 13:37:21;;;;;;;5.60;2.43;;;10.50;99.90;;;;;;5034746;28;20497;-81
2023/02/19 13:39:49;;;;;;;5.60;2.50;;;10.50;99.90;;;;;;5034646;28;20431;-81
2023/02/19 13:42:26;;;;;;;4.90;2.40;;;10.50;99.90;;;;;;5018207;28;20029;-81
2023/02/19 13:44:54;;;;;;;5.33;2.50;;;10.60;99.90;;;;;;5034665;28;20385;-80